Deunquat, Ohio
Current Conditions -  °F | °C
As of 4:53 PM on Saturday 25 Oct 2014 (Local Time) from KMNN Reporting Station
Clear Clear  
Wind Chill: 72°   Ceiling: Unl
Heat Index: 72°   Visibility: 10mi
Dew Point: 47°   Wind: 17mph
Humidity: 41%   Direction: 290°WNW
Pressure: 29.82"   Gusts: 24mph
Location:  40.948°N, 83.1346°W
Report Text: KMNN 252053Z AUTO 29015G21KT 10SM CLR 22/08 A2982 RMK AO2 SLP096 T02220083 56006 TSNO $
Loading
Personal Weather Stations






























Interactive Weather Map New forecast layout! Learn more

10-Day Weather Forecast

Advertisements
Track Severe Weather on mobile